Terminal Aerodrome Forecast
Issued by NWS

Home | Current Version | Previous Version | Text Only | Print | Product List | Glossary On
Versions: 1 2 3 4 5 6 7 8 9 10 11 12 13 14 15 16 17 18 19 20
000
FTUS43 KEAX 261619 AAC
TAFSTJ
TAF AMD
KSTJ 261619Z 2616/2712 08008KT 6SM BR OVC011
     FM261800 06005KT P6SM FEW010 BKN030
     FM262000 10007KT P6SM VCTS BKN035 BKN060CB
     FM270300 14008KT P6SM BKN035=

USA.gov is the U.S. government's official web portal to all federal, state and local government web resources and services.